KAIZ/AIZ METAR and TAF weather

Enter ICAO airport designator
Station Type Date Time Source
KAIZ METAR 2019/08/22 02:41 UTC NOAA

KAIZ 220241Z AUTO 20006KT 10SM VCTS OVC044 23/20 A3002 RMK AO2 WSHFT 0146 LTG DSNT ALQDS TSE36B41


Station Type Date Time Source
KAIZ Decoded METAR 2019/08/22 02:41 UTC NOAA

Station name not available
Aug 21, 2019 - 10:41 PM EDT / 2019.08.22 0241 UTC
Wind: from the SSW (200 degrees) at 7 MPH (6 KT):0
Visibility: 10 mile(s):0
Sky conditions: overcast
Weather: thunder in the vicinity; Lightning observed
Temperature: 73 F (23 C)
Dew Point: 68 F (20 C)
Relative Humidity: 83%
Pressure (altimeter): 30.02 in. Hg (1016 hPa)
ob: KAIZ 220241Z AUTO 20006KT 10SM VCTS OVC044 23/20 A3002 RMK AO2 WSHFT 0146 LTG DSNT ALQDS TSE36B41
cycle: 2

Station Type Date Time Source
KAIZ TAF UTC NOAA

Error!

Example: see airport list